createdAt,value
2022-07-31T00:04:52.331Z,19.58
2022-07-31T00:09:55.543Z,19.62
2022-07-31T00:14:59.658Z,19.57
2022-07-31T00:20:02.874Z,19.39
2022-07-31T00:25:06.422Z,19.34
2022-07-31T00:30:12.979Z,19.25
2022-07-31T00:35:16.009Z,19.13
2022-07-31T00:40:18.808Z,19.13
2022-07-31T00:45:24.243Z,19.18
2022-07-31T00:50:32.257Z,19.18
2022-07-31T00:55:51.795Z,19.12
2022-07-31T01:00:56.390Z,19.02
2022-07-31T01:05:59.364Z,19.04
2022-07-31T01:11:07.590Z,19.04
2022-07-31T01:16:19.272Z,18.87
2022-07-31T01:21:28.477Z,18.77
2022-07-31T01:26:39.954Z,18.76
2022-07-31T01:31:47.419Z,18.62
2022-07-31T01:36:59.147Z,18.50
2022-07-31T01:42:06.783Z,18.42
2022-07-31T01:47:14.880Z,18.44
2022-07-31T01:52:18.932Z,18.36
2022-07-31T01:57:24.614Z,18.25
2022-07-31T02:02:31.539Z,18.14
2022-07-31T02:07:36.229Z,18.05
2022-07-31T02:12:39.585Z,17.94
2022-07-31T02:17:46.439Z,17.83
2022-07-31T02:22:59.246Z,17.68
2022-07-31T02:28:06.562Z,17.59
2022-07-31T02:33:14.743Z,17.48
2022-07-31T02:38:22.993Z,17.34
2022-07-31T02:43:29.544Z,17.21
2022-07-31T02:48:37.165Z,17.11
2022-07-31T02:53:43.660Z,16.99
2022-07-31T02:58:46.981Z,16.90
2022-07-31T03:04:01.637Z,16.85
2022-07-31T03:09:05.341Z,16.79
2022-07-31T03:14:12.342Z,16.78
2022-07-31T03:19:17.190Z,16.77
2022-07-31T03:24:20.704Z,16.75
2022-07-31T03:29:39.251Z,16.72
2022-07-31T03:34:48.783Z,16.70
2022-07-31T03:39:52.838Z,16.71
2022-07-31T03:44:56.670Z,16.61
2022-07-31T03:50:02.960Z,16.43
2022-07-31T03:55:07.607Z,16.53
2022-07-31T04:00:16.876Z,16.54
2022-07-31T04:05:22.119Z,16.65
2022-07-31T04:10:25.047Z,16.74
2022-07-31T04:15:28.016Z,16.81
2022-07-31T04:20:32.247Z,16.94
2022-07-31T04:25:35.058Z,17.06
2022-07-31T04:30:51.758Z,17.14
2022-07-31T04:35:55.972Z,17.17
2022-07-31T04:40:58.736Z,17.20
2022-07-31T04:46:02.137Z,17.33
2022-07-31T04:51:24.818Z,17.36
2022-07-31T04:56:42.873Z,17.48
2022-07-31T05:01:46.253Z,17.59
2022-07-31T05:06:53.464Z,17.70
2022-07-31T05:11:56.228Z,17.84
2022-07-31T05:16:59.655Z,17.91
2022-07-31T05:22:11.574Z,17.97
2022-07-31T05:27:33.252Z,18.04
2022-07-31T05:32:42.304Z,18.11
2022-07-31T05:37:46.752Z,18.25
2022-07-31T05:42:50.259Z,18.38
2022-07-31T05:48:19.273Z,18.48
2022-07-31T05:53:24.167Z,18.57
2022-07-31T05:58:49.622Z,18.53
2022-07-31T06:03:52.801Z,18.72
2022-07-31T06:09:05.291Z,18.78
2022-07-31T06:14:12.463Z,19.05
2022-07-31T06:19:43.960Z,19.18
2022-07-31T06:24:49.593Z,19.30
2022-07-31T06:29:53.924Z,19.24
2022-07-31T06:34:56.761Z,19.26
2022-07-31T06:40:00.967Z,19.33
2022-07-31T06:45:41.597Z,19.44
2022-07-31T06:51:21.060Z,19.66
2022-07-31T06:56:25.467Z,20.12
2022-07-31T07:01:29.157Z,20.11
2022-07-31T07:06:32.446Z,20.65
2022-07-31T07:11:36.944Z,20.87
2022-07-31T07:16:39.836Z,21.06
2022-07-31T07:21:42.742Z,21.43
2022-07-31T07:26:47.115Z,21.66
2022-07-31T07:31:49.968Z,21.94
2022-07-31T07:36:53.035Z,22.33
2022-07-31T07:42:01.279Z,22.62
2022-07-31T07:47:04.442Z,23.13
2022-07-31T07:52:08.152Z,23.40
2022-07-31T07:57:15.971Z,23.32
2022-07-31T08:02:37.384Z,23.54
2022-07-31T08:07:43.088Z,23.77
2022-07-31T08:13:05.936Z,23.77
2022-07-31T08:18:28.705Z,23.92
2022-07-31T08:23:31.947Z,24.24
2022-07-31T08:28:36.596Z,24.47
2022-07-31T08:33:39.465Z,24.31
2022-07-31T08:38:42.413Z,24.76
2022-07-31T08:44:05.437Z,24.74
2022-07-31T08:49:14.067Z,25.05
2022-07-31T08:54:21.036Z,24.92
2022-07-31T08:59:25.393Z,25.23
2022-07-31T09:04:29.851Z,25.45
2022-07-31T09:09:41.270Z,25.32
2022-07-31T09:14:55.498Z,25.38
2022-07-31T09:19:58.519Z,25.37
2022-07-31T09:25:13.025Z,25.32
2022-07-31T09:30:18.003Z,25.52
2022-07-31T09:35:47.878Z,25.51
2022-07-31T09:40:56.892Z,25.93
2022-07-31T09:46:28.411Z,26.81
2022-07-31T09:51:39.368Z,27.17
2022-07-31T09:56:44.773Z,27.62
2022-07-31T10:01:50.172Z,27.79
2022-07-31T10:06:53.368Z,27.61
2022-07-31T10:11:59.062Z,27.59
2022-07-31T10:17:06.622Z,27.37
2022-07-31T10:22:15.264Z,27.27
2022-07-31T10:27:19.415Z,27.14
2022-07-31T10:32:30.052Z,27.54
2022-07-31T10:38:04.814Z,27.47
2022-07-31T10:43:36.621Z,28.01
2022-07-31T10:48:59.561Z,27.72
2022-07-31T10:54:22.456Z,27.26
2022-07-31T10:59:44.876Z,27.74
2022-07-31T11:04:55.181Z,27.92
2022-07-31T11:10:19.546Z,28.23
2022-07-31T11:15:40.895Z,28.36
2022-07-31T11:21:28.792Z,28.81
2022-07-31T11:26:33.158Z,28.68
2022-07-31T11:31:44.013Z,28.75
2022-07-31T11:36:51.520Z,28.57
2022-07-31T11:42:09.480Z,28.65
2022-07-31T11:48:09.484Z,29.09
2022-07-31T11:52:38.022Z,29.97
2022-07-31T11:57:50.923Z,31.34
2022-07-31T12:02:55.745Z,30.37
2022-07-31T12:08:00.160Z,30.98
2022-07-31T12:13:04.586Z,31.26
2022-07-31T12:18:07.964Z,32.11
2022-07-31T12:23:41.145Z,31.98
2022-07-31T12:28:35.824Z,32.34
2022-07-31T12:33:43.140Z,32.06
2022-07-31T12:38:49.046Z,33.58
2022-07-31T12:43:54.222Z,31.48
2022-07-31T12:48:57.172Z,30.07
2022-07-31T12:54:03.358Z,29.68
2022-07-31T12:59:08.424Z,29.80
2022-07-31T13:04:18.651Z,29.23
2022-07-31T13:10:19.910Z,29.14
2022-07-31T13:15:12.685Z,29.70
2022-07-31T13:20:16.719Z,30.77
2022-07-31T13:25:21.621Z,32.39
2022-07-31T13:30:24.415Z,34.69
2022-07-31T13:35:29.082Z,34.91
2022-07-31T13:40:51.271Z,33.38
2022-07-31T13:45:54.043Z,37.24
2022-07-31T13:50:56.901Z,39.14
2022-07-31T13:56:01.339Z,41.22
2022-07-31T14:01:05.095Z,37.62
2022-07-31T14:06:08.172Z,40.41
2022-07-31T14:11:13.847Z,40.63
2022-07-31T14:16:18.276Z,37.24
2022-07-31T14:21:21.057Z,35.55
2022-07-31T14:26:25.214Z,36.40
2022-07-31T14:31:27.956Z,39.62
2022-07-31T14:36:30.711Z,36.00
2022-07-31T14:41:34.838Z,36.35
2022-07-31T14:46:37.619Z,34.55
2022-07-31T14:51:40.565Z,34.40
2022-07-31T14:57:00.703Z,41.57
2022-07-31T15:02:04.456Z,44.47
2022-07-31T15:07:33.551Z,41.63
2022-07-31T15:12:32.372Z,44.12
2022-07-31T15:17:35.283Z,39.87
2022-07-31T15:22:38.122Z,37.78
2022-07-31T15:27:42.518Z,44.82
2022-07-31T15:32:45.651Z,45.06
2022-07-31T15:37:49.441Z,40.23
2022-07-31T15:42:53.559Z,40.18
2022-07-31T15:47:56.345Z,38.15
2022-07-31T15:52:59.074Z,35.75
2022-07-31T15:58:03.171Z,37.07
2022-07-31T16:03:06.139Z,39.70
2022-07-31T16:08:29.335Z,41.88
2022-07-31T16:13:36.299Z,36.74
2022-07-31T16:18:39.151Z,34.83
2022-07-31T16:23:42.333Z,34.94
2022-07-31T16:28:49.031Z,36.26
2022-07-31T16:33:55.066Z,33.39
2022-07-31T16:39:18.918Z,32.99
2022-07-31T16:44:22.077Z,31.96
2022-07-31T16:49:35.756Z,34.97
2022-07-31T16:54:40.159Z,32.33
2022-07-31T16:59:57.466Z,31.47
2022-07-31T17:05:00.763Z,30.61
2022-07-31T17:10:03.591Z,30.66
2022-07-31T17:15:08.958Z,31.72
2022-07-31T17:20:12.391Z,32.76
2022-07-31T17:25:18.215Z,31.81
2022-07-31T17:30:22.334Z,30.11
2022-07-31T17:35:25.282Z,29.64
2022-07-31T17:40:43.105Z,29.09
2022-07-31T17:47:07.689Z,28.59
2022-07-31T17:51:11.050Z,28.39
2022-07-31T17:56:14.011Z,28.13
2022-07-31T18:01:18.295Z,27.80
2022-07-31T18:06:21.339Z,27.26
2022-07-31T18:11:24.212Z,27.00
2022-07-31T18:16:28.370Z,26.74
2022-07-31T18:21:31.130Z,26.51
2022-07-31T18:26:35.231Z,26.23
2022-07-31T18:31:39.571Z,25.98
2022-07-31T18:36:42.960Z,25.89
2022-07-31T18:41:49.000Z,25.76
2022-07-31T18:46:53.393Z,25.66
2022-07-31T18:51:56.303Z,25.53
2022-07-31T18:56:59.306Z,25.44
2022-07-31T19:02:04.059Z,25.26
2022-07-31T19:07:07.099Z,25.11
2022-07-31T19:12:10.460Z,24.97
2022-07-31T19:17:18.495Z,24.85
2022-07-31T19:22:24.567Z,24.72
2022-07-31T19:27:46.936Z,24.59
2022-07-31T19:32:51.491Z,24.49
2022-07-31T19:37:58.639Z,24.45
2022-07-31T19:43:02.085Z,24.40
2022-07-31T19:48:06.923Z,24.33
2022-07-31T19:53:09.696Z,24.26
2022-07-31T19:58:12.454Z,24.16
2022-07-31T20:03:16.736Z,24.07
2022-07-31T20:08:20.116Z,24.00
2022-07-31T20:13:22.856Z,23.92
2022-07-31T20:18:30.543Z,23.82
2022-07-31T20:23:34.138Z,23.72
2022-07-31T20:28:37.598Z,23.68
2022-07-31T20:33:44.252Z,23.60
2022-07-31T20:38:49.306Z,23.55
2022-07-31T20:43:52.070Z,23.47
2022-07-31T20:48:57.172Z,23.43
2022-07-31T20:54:00.090Z,23.39
2022-07-31T20:59:02.896Z,23.34
2022-07-31T21:04:07.677Z,23.31
2022-07-31T21:09:10.452Z,23.25
2022-07-31T21:14:13.322Z,23.21
2022-07-31T21:19:17.471Z,23.13
2022-07-31T21:24:22.342Z,23.04
2022-07-31T21:29:29.191Z,22.95
2022-07-31T21:34:34.156Z,22.90
2022-07-31T21:39:37.364Z,22.83
2022-07-31T21:44:40.591Z,22.76
2022-07-31T21:49:54.067Z,22.68
2022-07-31T21:55:03.789Z,22.60
2022-07-31T22:00:13.732Z,22.52
2022-07-31T22:05:36.072Z,22.42
2022-07-31T22:10:38.977Z,22.33
2022-07-31T22:15:55.645Z,22.25
2022-07-31T22:21:06.600Z,22.18
2022-07-31T22:26:09.768Z,22.08
2022-07-31T22:31:12.969Z,22.03
2022-07-31T22:36:18.375Z,22.00
2022-07-31T22:41:21.913Z,22.00
2022-07-31T22:46:24.934Z,21.98
2022-07-31T22:51:29.319Z,21.92
2022-07-31T22:56:32.079Z,21.81
2022-07-31T23:01:35.084Z,21.71
2022-07-31T23:06:39.184Z,21.65
2022-07-31T23:11:42.146Z,21.56
2022-07-31T23:16:44.984Z,21.47
2022-07-31T23:21:49.209Z,21.38
2022-07-31T23:26:52.007Z,21.28
2022-07-31T23:31:54.877Z,21.21
2022-07-31T23:36:59.020Z,21.15
2022-07-31T23:42:15.698Z,21.04
2022-07-31T23:47:18.532Z,21.00
2022-07-31T23:52:23.876Z,20.93
2022-07-31T23:57:26.637Z,20.83
